sensor_id;sensor_type;location;lat;lon;timestamp;P1;durP1;ratioP1;P2;durP2;ratioP2
7487;SDS011;3785;52.260;4.728;2022-12-13T00:01:50;15.80;;;7.80;;
7487;SDS011;3785;52.260;4.728;2022-12-13T00:05:12;17.43;;;7.43;;
7487;SDS011;3785;52.260;4.728;2022-12-13T00:08:33;14.63;;;8.00;;
7487;SDS011;3785;52.260;4.728;2022-12-13T00:11:53;16.80;;;8.17;;
7487;SDS011;3785;52.260;4.728;2022-12-13T00:15:14;18.13;;;8.70;;
7487;SDS011;3785;52.260;4.728;2022-12-13T00:18:35;14.47;;;7.40;;
7487;SDS011;3785;52.260;4.728;2022-12-13T00:21:55;12.43;;;7.53;;
7487;SDS011;3785;52.260;4.728;2022-12-13T00:25:16;12.30;;;6.93;;
7487;SDS011;3785;52.260;4.728;2022-12-13T00:28:39;10.30;;;6.33;;
7487;SDS011;3785;52.260;4.728;2022-12-13T00:32:00;15.83;;;7.70;;
7487;SDS011;3785;52.260;4.728;2022-12-13T00:35:20;12.67;;;6.80;;
7487;SDS011;3785;52.260;4.728;2022-12-13T00:38:41;14.27;;;6.97;;
7487;SDS011;3785;52.260;4.728;2022-12-13T00:42:02;17.07;;;7.10;;
7487;SDS011;3785;52.260;4.728;2022-12-13T00:45:23;14.80;;;7.47;;
7487;SDS011;3785;52.260;4.728;2022-12-13T00:48:43;22.70;;;8.23;;
7487;SDS011;3785;52.260;4.728;2022-12-13T00:52:08;14.87;;;6.60;;
7487;SDS011;3785;52.260;4.728;2022-12-13T00:55:28;13.60;;;6.27;;
7487;SDS011;3785;52.260;4.728;2022-12-13T00:58:49;12.03;;;6.33;;
7487;SDS011;3785;52.260;4.728;2022-12-13T01:02:09;11.83;;;6.47;;
7487;SDS011;3785;52.260;4.728;2022-12-13T01:05:30;13.27;;;6.03;;
7487;SDS011;3785;52.260;4.728;2022-12-13T01:08:51;14.43;;;7.53;;
7487;SDS011;3785;52.260;4.728;2022-12-13T01:12:11;17.67;;;7.40;;
7487;SDS011;3785;52.260;4.728;2022-12-13T01:15:32;20.47;;;7.40;;
7487;SDS011;3785;52.260;4.728;2022-12-13T01:18:52;15.50;;;7.90;;
7487;SDS011;3785;52.260;4.728;2022-12-13T01:22:15;14.53;;;7.03;;
7487;SDS011;3785;52.260;4.728;2022-12-13T01:25:36;17.07;;;7.43;;
7487;SDS011;3785;52.260;4.728;2022-12-13T01:28:57;11.63;;;5.93;;
7487;SDS011;3785;52.260;4.728;2022-12-13T01:32:17;17.77;;;7.27;;
7487;SDS011;3785;52.260;4.728;2022-12-13T01:35:38;14.47;;;6.83;;
7487;SDS011;3785;52.260;4.728;2022-12-13T01:38:58;12.87;;;6.07;;
7487;SDS011;3785;52.260;4.728;2022-12-13T01:42:20;11.33;;;6.90;;
7487;SDS011;3785;52.260;4.728;2022-12-13T01:45:40;17.50;;;7.10;;
7487;SDS011;3785;52.260;4.728;2022-12-13T01:52:27;13.93;;;7.33;;
7487;SDS011;3785;52.260;4.728;2022-12-13T01:55:52;12.47;;;7.10;;
7487;SDS011;3785;52.260;4.728;2022-12-13T01:59:14;14.83;;;7.13;;
7487;SDS011;3785;52.260;4.728;2022-12-13T02:02:37;12.10;;;7.13;;
7487;SDS011;3785;52.260;4.728;2022-12-13T02:05:59;16.80;;;6.73;;
7487;SDS011;3785;52.260;4.728;2022-12-13T02:09:25;14.83;;;7.07;;
7487;SDS011;3785;52.260;4.728;2022-12-13T02:12:45;13.27;;;7.07;;
7487;SDS011;3785;52.260;4.728;2022-12-13T02:23:56;11.87;;;6.37;;
7487;SDS011;3785;52.260;4.728;2022-12-13T02:27:52;11.53;;;6.87;;
7487;SDS011;3785;52.260;4.728;2022-12-13T02:39:07;11.43;;;5.60;;
7487;SDS011;3785;52.260;4.728;2022-12-13T02:42:34;14.93;;;6.87;;
7487;SDS011;3785;52.260;4.728;2022-12-13T02:46:02;13.53;;;6.37;;
7487;SDS011;3785;52.260;4.728;2022-12-13T02:49:24;12.23;;;6.00;;
7487;SDS011;3785;52.260;4.728;2022-12-13T02:52:48;15.57;;;5.80;;
7487;SDS011;3785;52.260;4.728;2022-12-13T02:56:09;13.90;;;5.80;;
7487;SDS011;3785;52.260;4.728;2022-12-13T02:59:32;12.13;;;6.20;;
7487;SDS011;3785;52.260;4.728;2022-12-13T03:03:00;10.27;;;5.93;;
7487;SDS011;3785;52.260;4.728;2022-12-13T03:06:39;11.60;;;6.53;;
7487;SDS011;3785;52.260;4.728;2022-12-13T03:10:21;18.07;;;7.33;;
7487;SDS011;3785;52.260;4.728;2022-12-13T03:13:52;13.37;;;6.40;;
7487;SDS011;3785;52.260;4.728;2022-12-13T03:17:14;10.43;;;5.50;;
7487;SDS011;3785;52.260;4.728;2022-12-13T03:20:36;12.90;;;5.87;;
7487;SDS011;3785;52.260;4.728;2022-12-13T03:23:56;12.20;;;6.33;;
7487;SDS011;3785;52.260;4.728;2022-12-13T03:27:17;12.93;;;6.33;;
7487;SDS011;3785;52.260;4.728;2022-12-13T03:30:37;14.50;;;7.10;;
7487;SDS011;3785;52.260;4.728;2022-12-13T03:33:58;11.77;;;5.60;;
7487;SDS011;3785;52.260;4.728;2022-12-13T03:37:18;10.93;;;5.73;;
7487;SDS011;3785;52.260;4.728;2022-12-13T03:40:39;11.70;;;6.57;;
7487;SDS011;3785;52.260;4.728;2022-12-13T03:44:03;13.97;;;6.87;;
7487;SDS011;3785;52.260;4.728;2022-12-13T03:47:25;16.03;;;5.50;;
7487;SDS011;3785;52.260;4.728;2022-12-13T03:50:45;13.80;;;7.27;;
7487;SDS011;3785;52.260;4.728;2022-12-13T03:54:06;12.70;;;5.57;;
7487;SDS011;3785;52.260;4.728;2022-12-13T03:57:27;14.43;;;5.97;;
7487;SDS011;3785;52.260;4.728;2022-12-13T04:00:48;11.63;;;6.13;;
7487;SDS011;3785;52.260;4.728;2022-12-13T04:04:08;11.13;;;5.80;;
7487;SDS011;3785;52.260;4.728;2022-12-13T04:07:29;12.57;;;6.27;;
7487;SDS011;3785;52.260;4.728;2022-12-13T04:10:49;12.10;;;6.63;;
7487;SDS011;3785;52.260;4.728;2022-12-13T04:14:10;10.90;;;6.00;;
7487;SDS011;3785;52.260;4.728;2022-12-13T04:17:31;14.20;;;6.37;;
7487;SDS011;3785;52.260;4.728;2022-12-13T04:20:51;12.43;;;5.70;;
7487;SDS011;3785;52.260;4.728;2022-12-13T04:24:12;15.27;;;6.40;;
7487;SDS011;3785;52.260;4.728;2022-12-13T04:27:33;10.00;;;5.93;;
7487;SDS011;3785;52.260;4.728;2022-12-13T04:30:53;9.67;;;5.87;;
7487;SDS011;3785;52.260;4.728;2022-12-13T04:34:14;16.77;;;7.60;;
7487;SDS011;3785;52.260;4.728;2022-12-13T04:37:34;11.60;;;6.00;;
7487;SDS011;3785;52.260;4.728;2022-12-13T04:41:05;11.53;;;5.70;;
7487;SDS011;3785;52.260;4.728;2022-12-13T04:44:27;10.23;;;5.73;;
7487;SDS011;3785;52.260;4.728;2022-12-13T04:47:47;20.20;;;6.87;;
7487;SDS011;3785;52.260;4.728;2022-12-13T04:51:08;11.90;;;6.63;;
7487;SDS011;3785;52.260;4.728;2022-12-13T04:54:29;10.77;;;5.60;;
7487;SDS011;3785;52.260;4.728;2022-12-13T04:57:51;8.77;;;5.50;;
7487;SDS011;3785;52.260;4.728;2022-12-13T05:01:12;12.73;;;5.30;;
7487;SDS011;3785;52.260;4.728;2022-12-13T05:04:32;12.20;;;5.70;;
7487;SDS011;3785;52.260;4.728;2022-12-13T05:07:53;14.53;;;6.33;;
7487;SDS011;3785;52.260;4.728;2022-12-13T05:11:14;12.87;;;5.63;;
7487;SDS011;3785;52.260;4.728;2022-12-13T05:14:35;12.67;;;5.13;;
7487;SDS011;3785;52.260;4.728;2022-12-13T05:17:59;13.07;;;6.13;;
7487;SDS011;3785;52.260;4.728;2022-12-13T05:21:21;10.93;;;5.30;;
7487;SDS011;3785;52.260;4.728;2022-12-13T05:24:42;11.50;;;5.37;;
7487;SDS011;3785;52.260;4.728;2022-12-13T05:28:04;13.60;;;6.13;;
7487;SDS011;3785;52.260;4.728;2022-12-13T05:31:25;12.57;;;6.33;;
7487;SDS011;3785;52.260;4.728;2022-12-13T05:34:45;15.07;;;6.73;;
7487;SDS011;3785;52.260;4.728;2022-12-13T05:38:06;9.13;;;5.90;;
7487;SDS011;3785;52.260;4.728;2022-12-13T05:41:26;15.30;;;5.87;;
7487;SDS011;3785;52.260;4.728;2022-12-13T05:44:50;11.73;;;6.57;;
7487;SDS011;3785;52.260;4.728;2022-12-13T05:48:11;11.13;;;6.10;;
7487;SDS011;3785;52.260;4.728;2022-12-13T05:51:31;16.93;;;6.37;;
7487;SDS011;3785;52.260;4.728;2022-12-13T05:54:55;12.27;;;5.77;;
7487;SDS011;3785;52.260;4.728;2022-12-13T05:58:16;12.00;;;6.20;;
7487;SDS011;3785;52.260;4.728;2022-12-13T06:01:36;12.47;;;5.63;;
7487;SDS011;3785;52.260;4.728;2022-12-13T06:04:57;10.73;;;5.40;;
7487;SDS011;3785;52.260;4.728;2022-12-13T06:08:17;12.47;;;5.40;;
7487;SDS011;3785;52.260;4.728;2022-12-13T06:11:38;18.27;;;6.53;;
7487;SDS011;3785;52.260;4.728;2022-12-13T06:14:58;16.50;;;6.60;;
7487;SDS011;3785;52.260;4.728;2022-12-13T06:18:19;15.10;;;7.20;;
7487;SDS011;3785;52.260;4.728;2022-12-13T06:21:39;16.73;;;7.07;;
7487;SDS011;3785;52.260;4.728;2022-12-13T06:25:00;11.40;;;6.47;;
7487;SDS011;3785;52.260;4.728;2022-12-13T06:28:21;14.47;;;6.53;;
7487;SDS011;3785;52.260;4.728;2022-12-13T06:31:41;14.40;;;6.53;;
7487;SDS011;3785;52.260;4.728;2022-12-13T06:35:02;14.83;;;7.57;;
7487;SDS011;3785;52.260;4.728;2022-12-13T06:38:25;17.30;;;6.53;;
7487;SDS011;3785;52.260;4.728;2022-12-13T06:41:46;16.10;;;7.37;;
7487;SDS011;3785;52.260;4.728;2022-12-13T06:45:07;14.03;;;6.57;;
7487;SDS011;3785;52.260;4.728;2022-12-13T06:48:27;14.40;;;7.23;;
7487;SDS011;3785;52.260;4.728;2022-12-13T06:51:48;15.77;;;7.57;;
7487;SDS011;3785;52.260;4.728;2022-12-13T06:55:09;14.10;;;7.20;;
7487;SDS011;3785;52.260;4.728;2022-12-13T06:58:29;13.77;;;7.23;;
7487;SDS011;3785;52.260;4.728;2022-12-13T07:01:50;13.87;;;7.83;;
7487;SDS011;3785;52.260;4.728;2022-12-13T07:05:11;19.00;;;9.30;;
7487;SDS011;3785;52.260;4.728;2022-12-13T07:08:31;11.30;;;6.27;;
7487;SDS011;3785;52.260;4.728;2022-12-13T07:11:52;10.87;;;6.67;;
7487;SDS011;3785;52.260;4.728;2022-12-13T07:15:12;17.97;;;7.67;;
7487;SDS011;3785;52.260;4.728;2022-12-13T07:18:33;57.73;;;10.23;;
7487;SDS011;3785;52.260;4.728;2022-12-13T07:21:53;17.90;;;7.57;;
7487;SDS011;3785;52.260;4.728;2022-12-13T07:25:14;15.97;;;7.70;;
7487;SDS011;3785;52.260;4.728;2022-12-13T07:28:35;13.40;;;7.23;;
7487;SDS011;3785;52.260;4.728;2022-12-13T07:31:56;10.77;;;6.27;;
7487;SDS011;3785;52.260;4.728;2022-12-13T07:35:16;11.17;;;6.20;;
7487;SDS011;3785;52.260;4.728;2022-12-13T07:38:38;15.20;;;6.97;;
7487;SDS011;3785;52.260;4.728;2022-12-13T07:41:58;20.17;;;8.90;;
7487;SDS011;3785;52.260;4.728;2022-12-13T07:45:19;19.37;;;8.37;;
7487;SDS011;3785;52.260;4.728;2022-12-13T07:48:40;23.40;;;10.37;;
7487;SDS011;3785;52.260;4.728;2022-12-13T07:52:01;21.57;;;9.77;;
7487;SDS011;3785;52.260;4.728;2022-12-13T07:55:21;12.83;;;7.40;;
7487;SDS011;3785;52.260;4.728;2022-12-13T07:58:42;15.13;;;6.33;;
7487;SDS011;3785;52.260;4.728;2022-12-13T08:02:04;24.40;;;9.03;;
7487;SDS011;3785;52.260;4.728;2022-12-13T08:05:25;18.73;;;7.63;;
7487;SDS011;3785;52.260;4.728;2022-12-13T08:08:46;21.27;;;9.80;;
7487;SDS011;3785;52.260;4.728;2022-12-13T08:12:10;16.83;;;9.63;;
7487;SDS011;3785;52.260;4.728;2022-12-13T08:15:30;17.10;;;8.17;;
7487;SDS011;3785;52.260;4.728;2022-12-13T08:18:51;16.60;;;6.97;;
7487;SDS011;3785;52.260;4.728;2022-12-13T08:22:11;14.37;;;7.73;;
7487;SDS011;3785;52.260;4.728;2022-12-13T08:25:33;18.80;;;8.33;;
7487;SDS011;3785;52.260;4.728;2022-12-13T08:28:55;13.87;;;7.83;;
7487;SDS011;3785;52.260;4.728;2022-12-13T08:32:15;16.17;;;7.47;;
7487;SDS011;3785;52.260;4.728;2022-12-13T08:35:36;15.03;;;8.17;;
7487;SDS011;3785;52.260;4.728;2022-12-13T08:38:56;16.93;;;8.00;;
7487;SDS011;3785;52.260;4.728;2022-12-13T08:42:17;15.97;;;8.43;;
7487;SDS011;3785;52.260;4.728;2022-12-13T08:45:38;13.17;;;6.53;;
7487;SDS011;3785;52.260;4.728;2022-12-13T08:48:58;12.60;;;8.27;;
7487;SDS011;3785;52.260;4.728;2022-12-13T08:52:20;14.73;;;8.40;;
7487;SDS011;3785;52.260;4.728;2022-12-13T08:55:41;15.43;;;7.60;;
7487;SDS011;3785;52.260;4.728;2022-12-13T08:59:02;15.30;;;8.60;;
7487;SDS011;3785;52.260;4.728;2022-12-13T09:02:23;16.03;;;8.47;;
7487;SDS011;3785;52.260;4.728;2022-12-13T09:05:44;19.20;;;9.13;;
7487;SDS011;3785;52.260;4.728;2022-12-13T09:09:05;18.87;;;8.83;;
7487;SDS011;3785;52.260;4.728;2022-12-13T09:12:25;14.13;;;8.00;;
7487;SDS011;3785;52.260;4.728;2022-12-13T09:15:46;16.93;;;8.90;;
7487;SDS011;3785;52.260;4.728;2022-12-13T09:19:07;14.53;;;8.03;;
7487;SDS011;3785;52.260;4.728;2022-12-13T09:22:31;18.17;;;9.30;;
7487;SDS011;3785;52.260;4.728;2022-12-13T09:25:57;16.37;;;8.23;;
7487;SDS011;3785;52.260;4.728;2022-12-13T09:29:19;21.17;;;8.87;;
7487;SDS011;3785;52.260;4.728;2022-12-13T09:32:40;19.37;;;9.73;;
7487;SDS011;3785;52.260;4.728;2022-12-13T09:36:03;16.60;;;8.50;;
7487;SDS011;3785;52.260;4.728;2022-12-13T09:39:25;18.67;;;8.43;;
7487;SDS011;3785;52.260;4.728;2022-12-13T09:42:47;14.90;;;8.80;;
7487;SDS011;3785;52.260;4.728;2022-12-13T09:46:26;18.83;;;9.53;;
7487;SDS011;3785;52.260;4.728;2022-12-13T09:49:54;18.03;;;9.10;;
7487;SDS011;3785;52.260;4.728;2022-12-13T09:53:16;20.47;;;10.50;;
7487;SDS011;3785;52.260;4.728;2022-12-13T09:56:38;19.50;;;9.40;;
7487;SDS011;3785;52.260;4.728;2022-12-13T10:00:03;19.07;;;9.93;;
7487;SDS011;3785;52.260;4.728;2022-12-13T10:03:25;21.10;;;10.20;;
7487;SDS011;3785;52.260;4.728;2022-12-13T10:06:48;20.43;;;9.73;;
7487;SDS011;3785;52.260;4.728;2022-12-13T10:10:12;16.63;;;9.43;;
7487;SDS011;3785;52.260;4.728;2022-12-13T10:17:08;17.97;;;9.33;;
7487;SDS011;3785;52.260;4.728;2022-12-13T10:20:29;21.03;;;9.93;;
7487;SDS011;3785;52.260;4.728;2022-12-13T10:23:49;21.77;;;10.30;;
7487;SDS011;3785;52.260;4.728;2022-12-13T10:27:11;19.00;;;9.47;;
7487;SDS011;3785;52.260;4.728;2022-12-13T10:30:40;20.33;;;11.23;;
7487;SDS011;3785;52.260;4.728;2022-12-13T10:34:02;17.80;;;9.93;;
7487;SDS011;3785;52.260;4.728;2022-12-13T10:37:25;18.20;;;9.93;;
7487;SDS011;3785;52.260;4.728;2022-12-13T10:40:47;26.87;;;11.87;;
7487;SDS011;3785;52.260;4.728;2022-12-13T10:47:31;19.77;;;10.87;;
7487;SDS011;3785;52.260;4.728;2022-12-13T10:54:35;23.33;;;11.60;;
7487;SDS011;3785;52.260;4.728;2022-12-13T10:58:17;23.57;;;12.07;;
7487;SDS011;3785;52.260;4.728;2022-12-13T11:01:38;25.77;;;11.50;;
7487;SDS011;3785;52.260;4.728;2022-12-13T11:04:59;27.20;;;13.37;;
7487;SDS011;3785;52.260;4.728;2022-12-13T11:08:40;29.07;;;13.03;;
7487;SDS011;3785;52.260;4.728;2022-12-13T11:12:02;29.53;;;13.90;;
7487;SDS011;3785;52.260;4.728;2022-12-13T11:15:23;25.50;;;12.60;;
7487;SDS011;3785;52.260;4.728;2022-12-13T11:18:48;24.63;;;12.23;;
7487;SDS011;3785;52.260;4.728;2022-12-13T11:22:22;28.87;;;13.53;;
7487;SDS011;3785;52.260;4.728;2022-12-13T11:25:44;21.37;;;11.87;;
7487;SDS011;3785;52.260;4.728;2022-12-13T11:29:25;22.53;;;12.90;;
7487;SDS011;3785;52.260;4.728;2022-12-13T11:39:57;28.10;;;13.27;;
7487;SDS011;3785;52.260;4.728;2022-12-13T11:44:07;22.23;;;12.47;;
7487;SDS011;3785;52.260;4.728;2022-12-13T11:47:11;23.70;;;13.00;;
7487;SDS011;3785;52.260;4.728;2022-12-13T11:50:41;26.80;;;13.30;;
7487;SDS011;3785;52.260;4.728;2022-12-13T11:54:07;31.17;;;14.20;;
7487;SDS011;3785;52.260;4.728;2022-12-13T12:01:33;27.67;;;13.47;;
7487;SDS011;3785;52.260;4.728;2022-12-13T12:05:01;24.53;;;13.97;;
7487;SDS011;3785;52.260;4.728;2022-12-13T12:08:32;27.47;;;15.07;;
7487;SDS011;3785;52.260;4.728;2022-12-13T12:12:07;26.33;;;13.70;;
7487;SDS011;3785;52.260;4.728;2022-12-13T12:15:34;25.30;;;13.27;;
7487;SDS011;3785;52.260;4.728;2022-12-13T12:18:59;31.63;;;14.60;;
7487;SDS011;3785;52.260;4.728;2022-12-13T12:26:06;24.53;;;13.90;;
7487;SDS011;3785;52.260;4.728;2022-12-13T12:29:40;25.57;;;13.87;;
7487;SDS011;3785;52.260;4.728;2022-12-13T12:40:32;24.80;;;14.57;;
7487;SDS011;3785;52.260;4.728;2022-12-13T12:44:23;25.03;;;13.47;;
7487;SDS011;3785;52.260;4.728;2022-12-13T12:59:27;23.07;;;12.73;;
7487;SDS011;3785;52.260;4.728;2022-12-13T13:06:46;26.40;;;14.40;;
7487;SDS011;3785;52.260;4.728;2022-12-13T13:10:11;24.03;;;13.10;;
7487;SDS011;3785;52.260;4.728;2022-12-13T13:16:56;27.70;;;14.43;;
7487;SDS011;3785;52.260;4.728;2022-12-13T13:20:40;32.07;;;15.50;;
7487;SDS011;3785;52.260;4.728;2022-12-13T13:27:27;22.57;;;12.70;;
7487;SDS011;3785;52.260;4.728;2022-12-13T13:31:03;24.87;;;13.77;;
7487;SDS011;3785;52.260;4.728;2022-12-13T13:34:25;24.47;;;13.17;;
7487;SDS011;3785;52.260;4.728;2022-12-13T13:37:47;26.53;;;13.47;;
7487;SDS011;3785;52.260;4.728;2022-12-13T13:41:37;29.90;;;15.07;;
7487;SDS011;3785;52.260;4.728;2022-12-13T13:52:22;26.43;;;12.53;;
7487;SDS011;3785;52.260;4.728;2022-12-13T14:18:17;22.93;;;12.37;;
7487;SDS011;3785;52.260;4.728;2022-12-13T14:21:23;22.07;;;11.93;;
7487;SDS011;3785;52.260;4.728;2022-12-13T14:25:00;27.03;;;12.43;;
7487;SDS011;3785;52.260;4.728;2022-12-13T14:32:09;23.07;;;10.63;;
7487;SDS011;3785;52.260;4.728;2022-12-13T14:35:48;23.43;;;11.63;;
7487;SDS011;3785;52.260;4.728;2022-12-13T14:39:14;22.50;;;11.93;;
7487;SDS011;3785;52.260;4.728;2022-12-13T14:42:35;22.47;;;11.73;;
7487;SDS011;3785;52.260;4.728;2022-12-13T14:45:56;24.50;;;12.07;;
7487;SDS011;3785;52.260;4.728;2022-12-13T14:49:23;23.67;;;13.30;;
7487;SDS011;3785;52.260;4.728;2022-12-13T14:52:46;26.60;;;14.53;;
7487;SDS011;3785;52.260;4.728;2022-12-13T14:56:10;21.43;;;13.13;;
7487;SDS011;3785;52.260;4.728;2022-12-13T14:59:32;22.53;;;10.83;;
7487;SDS011;3785;52.260;4.728;2022-12-13T15:02:55;19.33;;;11.80;;
7487;SDS011;3785;52.260;4.728;2022-12-13T15:06:18;23.10;;;12.40;;
7487;SDS011;3785;52.260;4.728;2022-12-13T15:09:40;23.63;;;12.30;;
7487;SDS011;3785;52.260;4.728;2022-12-13T15:13:02;26.37;;;12.23;;
7487;SDS011;3785;52.260;4.728;2022-12-13T15:16:24;24.07;;;11.03;;
7487;SDS011;3785;52.260;4.728;2022-12-13T15:19:47;21.50;;;12.50;;
7487;SDS011;3785;52.260;4.728;2022-12-13T15:26:55;20.30;;;10.30;;
7487;SDS011;3785;52.260;4.728;2022-12-13T15:30:16;24.80;;;11.83;;
7487;SDS011;3785;52.260;4.728;2022-12-13T15:33:37;23.83;;;11.17;;
7487;SDS011;3785;52.260;4.728;2022-12-13T15:37:02;26.53;;;12.70;;
7487;SDS011;3785;52.260;4.728;2022-12-13T15:40:25;20.80;;;11.57;;
7487;SDS011;3785;52.260;4.728;2022-12-13T15:43:47;22.20;;;11.43;;
7487;SDS011;3785;52.260;4.728;2022-12-13T15:47:13;23.23;;;13.00;;
7487;SDS011;3785;52.260;4.728;2022-12-13T15:50:36;20.80;;;10.93;;
7487;SDS011;3785;52.260;4.728;2022-12-13T15:54:19;27.07;;;12.80;;
7487;SDS011;3785;52.260;4.728;2022-12-13T15:57:52;22.03;;;11.87;;
7487;SDS011;3785;52.260;4.728;2022-12-13T16:01:24;28.00;;;13.30;;
7487;SDS011;3785;52.260;4.728;2022-12-13T16:04:45;23.73;;;12.40;;
7487;SDS011;3785;52.260;4.728;2022-12-13T16:08:06;23.80;;;10.87;;
7487;SDS011;3785;52.260;4.728;2022-12-13T16:11:42;23.27;;;12.10;;
7487;SDS011;3785;52.260;4.728;2022-12-13T16:15:30;21.23;;;10.57;;
7487;SDS011;3785;52.260;4.728;2022-12-13T16:22:16;27.23;;;12.40;;
7487;SDS011;3785;52.260;4.728;2022-12-13T16:25:40;24.13;;;12.40;;
7487;SDS011;3785;52.260;4.728;2022-12-13T16:29:01;31.53;;;13.40;;
7487;SDS011;3785;52.260;4.728;2022-12-13T16:32:24;23.20;;;11.73;;
7487;SDS011;3785;52.260;4.728;2022-12-13T16:35:45;21.33;;;12.50;;
7487;SDS011;3785;52.260;4.728;2022-12-13T16:39:08;24.53;;;12.33;;
7487;SDS011;3785;52.260;4.728;2022-12-13T16:42:29;20.53;;;10.70;;
7487;SDS011;3785;52.260;4.728;2022-12-13T16:45:51;25.77;;;12.40;;
7487;SDS011;3785;52.260;4.728;2022-12-13T16:49:17;22.37;;;12.20;;
7487;SDS011;3785;52.260;4.728;2022-12-13T16:52:38;27.90;;;13.37;;
7487;SDS011;3785;52.260;4.728;2022-12-13T16:55:58;22.97;;;13.37;;
7487;SDS011;3785;52.260;4.728;2022-12-13T16:59:21;26.20;;;13.90;;
7487;SDS011;3785;52.260;4.728;2022-12-13T17:02:43;26.73;;;12.53;;
7487;SDS011;3785;52.260;4.728;2022-12-13T17:06:04;22.70;;;12.80;;
7487;SDS011;3785;52.260;4.728;2022-12-13T17:09:25;25.80;;;13.03;;
7487;SDS011;3785;52.260;4.728;2022-12-13T17:12:46;24.83;;;11.57;;
7487;SDS011;3785;52.260;4.728;2022-12-13T17:16:06;23.57;;;11.70;;
7487;SDS011;3785;52.260;4.728;2022-12-13T17:19:27;26.77;;;13.17;;
7487;SDS011;3785;52.260;4.728;2022-12-13T17:22:48;23.40;;;11.73;;
7487;SDS011;3785;52.260;4.728;2022-12-13T17:26:09;26.27;;;11.80;;
7487;SDS011;3785;52.260;4.728;2022-12-13T17:29:30;24.87;;;12.57;;
7487;SDS011;3785;52.260;4.728;2022-12-13T17:32:52;28.47;;;13.13;;
7487;SDS011;3785;52.260;4.728;2022-12-13T17:36:13;26.50;;;12.40;;
7487;SDS011;3785;52.260;4.728;2022-12-13T17:39:34;24.80;;;13.10;;
7487;SDS011;3785;52.260;4.728;2022-12-13T17:42:55;26.00;;;11.50;;
7487;SDS011;3785;52.260;4.728;2022-12-13T17:46:16;24.93;;;11.30;;
7487;SDS011;3785;52.260;4.728;2022-12-13T17:49:37;24.30;;;11.27;;
7487;SDS011;3785;52.260;4.728;2022-12-13T17:52:58;24.63;;;12.70;;
7487;SDS011;3785;52.260;4.728;2022-12-13T17:56:19;23.03;;;11.10;;
7487;SDS011;3785;52.260;4.728;2022-12-13T17:59:39;24.07;;;12.03;;
7487;SDS011;3785;52.260;4.728;2022-12-13T18:03:00;27.10;;;12.77;;
7487;SDS011;3785;52.260;4.728;2022-12-13T18:06:20;24.10;;;12.47;;
7487;SDS011;3785;52.260;4.728;2022-12-13T18:09:42;21.50;;;11.57;;
7487;SDS011;3785;52.260;4.728;2022-12-13T18:13:02;24.17;;;11.10;;
7487;SDS011;3785;52.260;4.728;2022-12-13T18:16:24;20.77;;;11.10;;
7487;SDS011;3785;52.260;4.728;2022-12-13T18:19:46;25.17;;;11.30;;
7487;SDS011;3785;52.260;4.728;2022-12-13T18:23:06;19.67;;;11.53;;
7487;SDS011;3785;52.260;4.728;2022-12-13T18:26:27;21.43;;;11.30;;
7487;SDS011;3785;52.260;4.728;2022-12-13T18:29:47;17.67;;;10.00;;
7487;SDS011;3785;52.260;4.728;2022-12-13T18:33:08;20.37;;;10.47;;
7487;SDS011;3785;52.260;4.728;2022-12-13T18:36:31;21.77;;;10.50;;
7487;SDS011;3785;52.260;4.728;2022-12-13T18:39:52;22.73;;;11.33;;
7487;SDS011;3785;52.260;4.728;2022-12-13T18:43:13;15.53;;;9.37;;
7487;SDS011;3785;52.260;4.728;2022-12-13T18:46:34;23.07;;;11.27;;
7487;SDS011;3785;52.260;4.728;2022-12-13T18:49:55;22.50;;;10.80;;
7487;SDS011;3785;52.260;4.728;2022-12-13T18:53:17;19.83;;;10.80;;
7487;SDS011;3785;52.260;4.728;2022-12-13T18:56:38;24.13;;;10.13;;
7487;SDS011;3785;52.260;4.728;2022-12-13T18:59:59;16.40;;;9.00;;
7487;SDS011;3785;52.260;4.728;2022-12-13T19:03:19;21.40;;;10.33;;
7487;SDS011;3785;52.260;4.728;2022-12-13T19:06:40;19.23;;;8.70;;
7487;SDS011;3785;52.260;4.728;2022-12-13T19:10:00;18.23;;;8.50;;
7487;SDS011;3785;52.260;4.728;2022-12-13T19:13:21;21.07;;;9.73;;
7487;SDS011;3785;52.260;4.728;2022-12-13T19:16:43;15.77;;;8.43;;
7487;SDS011;3785;52.260;4.728;2022-12-13T19:20:04;17.43;;;8.87;;
7487;SDS011;3785;52.260;4.728;2022-12-13T19:23:25;23.57;;;10.23;;
7487;SDS011;3785;52.260;4.728;2022-12-13T19:26:45;21.77;;;10.00;;
7487;SDS011;3785;52.260;4.728;2022-12-13T19:30:06;20.40;;;10.67;;
7487;SDS011;3785;52.260;4.728;2022-12-13T19:33:27;15.27;;;7.50;;
7487;SDS011;3785;52.260;4.728;2022-12-13T19:36:48;20.77;;;10.83;;
7487;SDS011;3785;52.260;4.728;2022-12-13T19:40:08;17.97;;;9.30;;
7487;SDS011;3785;52.260;4.728;2022-12-13T19:43:30;20.20;;;9.23;;
7487;SDS011;3785;52.260;4.728;2022-12-13T19:46:51;19.27;;;8.27;;
7487;SDS011;3785;52.260;4.728;2022-12-13T19:50:12;21.53;;;9.90;;
7487;SDS011;3785;52.260;4.728;2022-12-13T19:53:33;21.27;;;10.33;;
7487;SDS011;3785;52.260;4.728;2022-12-13T19:56:54;19.57;;;8.90;;
7487;SDS011;3785;52.260;4.728;2022-12-13T20:00:15;22.00;;;9.87;;
7487;SDS011;3785;52.260;4.728;2022-12-13T20:03:37;19.63;;;9.67;;
7487;SDS011;3785;52.260;4.728;2022-12-13T20:06:59;19.37;;;9.70;;
7487;SDS011;3785;52.260;4.728;2022-12-13T20:10:20;20.97;;;10.07;;
7487;SDS011;3785;52.260;4.728;2022-12-13T20:13:41;18.07;;;10.23;;
7487;SDS011;3785;52.260;4.728;2022-12-13T20:17:02;22.63;;;9.87;;
7487;SDS011;3785;52.260;4.728;2022-12-13T20:20:22;18.57;;;9.23;;
7487;SDS011;3785;52.260;4.728;2022-12-13T20:23:43;20.77;;;9.50;;
7487;SDS011;3785;52.260;4.728;2022-12-13T20:27:05;18.00;;;9.37;;
7487;SDS011;3785;52.260;4.728;2022-12-13T20:30:26;22.43;;;11.63;;
7487;SDS011;3785;52.260;4.728;2022-12-13T20:33:46;21.93;;;9.53;;
7487;SDS011;3785;52.260;4.728;2022-12-13T20:37:07;16.47;;;9.20;;
7487;SDS011;3785;52.260;4.728;2022-12-13T20:40:28;17.03;;;8.70;;
7487;SDS011;3785;52.260;4.728;2022-12-13T20:43:52;19.77;;;9.83;;
7487;SDS011;3785;52.260;4.728;2022-12-13T20:47:13;20.27;;;9.27;;
7487;SDS011;3785;52.260;4.728;2022-12-13T20:50:34;18.80;;;9.77;;
7487;SDS011;3785;52.260;4.728;2022-12-13T20:53:55;18.57;;;8.53;;
7487;SDS011;3785;52.260;4.728;2022-12-13T20:57:16;18.57;;;8.00;;
7487;SDS011;3785;52.260;4.728;2022-12-13T21:00:36;16.47;;;9.30;;
7487;SDS011;3785;52.260;4.728;2022-12-13T21:03:58;18.90;;;9.50;;
7487;SDS011;3785;52.260;4.728;2022-12-13T21:07:20;16.37;;;7.53;;
7487;SDS011;3785;52.260;4.728;2022-12-13T21:11:01;19.13;;;8.90;;
7487;SDS011;3785;52.260;4.728;2022-12-13T21:14:40;18.03;;;8.47;;
7487;SDS011;3785;52.260;4.728;2022-12-13T21:18:01;18.10;;;9.20;;
7487;SDS011;3785;52.260;4.728;2022-12-13T21:21:22;15.47;;;8.60;;
7487;SDS011;3785;52.260;4.728;2022-12-13T21:24:43;15.70;;;8.93;;
7487;SDS011;3785;52.260;4.728;2022-12-13T21:28:04;17.17;;;8.27;;
7487;SDS011;3785;52.260;4.728;2022-12-13T21:31:25;18.90;;;8.43;;
7487;SDS011;3785;52.260;4.728;2022-12-13T21:34:46;16.07;;;8.10;;
7487;SDS011;3785;52.260;4.728;2022-12-13T21:38:06;13.70;;;8.57;;
7487;SDS011;3785;52.260;4.728;2022-12-13T21:41:27;19.77;;;9.07;;
7487;SDS011;3785;52.260;4.728;2022-12-13T21:44:48;17.23;;;8.90;;
7487;SDS011;3785;52.260;4.728;2022-12-13T21:48:08;18.47;;;8.80;;
7487;SDS011;3785;52.260;4.728;2022-12-13T21:51:29;16.53;;;8.37;;
7487;SDS011;3785;52.260;4.728;2022-12-13T21:54:50;20.20;;;9.43;;
7487;SDS011;3785;52.260;4.728;2022-12-13T21:58:10;16.57;;;8.67;;
7487;SDS011;3785;52.260;4.728;2022-12-13T22:05:28;13.70;;;8.03;;
7487;SDS011;3785;52.260;4.728;2022-12-13T22:08:49;19.43;;;9.83;;
7487;SDS011;3785;52.260;4.728;2022-12-13T22:15:53;15.73;;;8.60;;
7487;SDS011;3785;52.260;4.728;2022-12-13T22:19:14;17.20;;;8.87;;
7487;SDS011;3785;52.260;4.728;2022-12-13T22:22:36;14.97;;;7.17;;
7487;SDS011;3785;52.260;4.728;2022-12-13T22:25:57;15.07;;;7.90;;
7487;SDS011;3785;52.260;4.728;2022-12-13T22:29:18;17.07;;;9.60;;
7487;SDS011;3785;52.260;4.728;2022-12-13T22:32:39;19.40;;;9.10;;
7487;SDS011;3785;52.260;4.728;2022-12-13T22:35:59;17.30;;;7.93;;